sensor_id;sensor_type;location;lat;lon;timestamp;P1;durP1;ratioP1;P2;durP2;ratioP2
40252;SDS011;25972;51.854;4.534;2022-10-16T00:01:34;4.30;;;1.83;;
40252;SDS011;25972;51.854;4.534;2022-10-16T00:04:00;4.97;;;1.83;;
40252;SDS011;25972;51.854;4.534;2022-10-16T00:06:29;3.55;;;2.00;;
40252;SDS011;25972;51.854;4.534;2022-10-16T00:08:55;3.72;;;1.90;;
40252;SDS011;25972;51.854;4.534;2022-10-16T00:11:23;2.83;;;1.60;;
40252;SDS011;25972;51.854;4.534;2022-10-16T00:13:51;2.03;;;1.58;;
40252;SDS011;25972;51.854;4.534;2022-10-16T00:16:22;5.50;;;2.15;;
40252;SDS011;25972;51.854;4.534;2022-10-16T00:18:48;4.55;;;1.63;;
40252;SDS011;25972;51.854;4.534;2022-10-16T00:21:18;2.60;;;1.77;;
40252;SDS011;25972;51.854;4.534;2022-10-16T00:23:46;5.25;;;1.60;;
40252;SDS011;25972;51.854;4.534;2022-10-16T00:26:16;4.57;;;1.73;;
40252;SDS011;25972;51.854;4.534;2022-10-16T00:28:44;2.95;;;1.67;;
40252;SDS011;25972;51.854;4.534;2022-10-16T00:31:14;3.00;;;1.73;;
40252;SDS011;25972;51.854;4.534;2022-10-16T00:33:42;1.30;;;1.20;;
40252;SDS011;25972;51.854;4.534;2022-10-16T00:36:09;4.72;;;1.88;;
40252;SDS011;25972;51.854;4.534;2022-10-16T00:38:37;1.05;;;1.05;;
40252;SDS011;25972;51.854;4.534;2022-10-16T00:41:03;3.45;;;1.58;;
40252;SDS011;25972;51.854;4.534;2022-10-16T00:43:34;4.25;;;1.85;;
40252;SDS011;25972;51.854;4.534;2022-10-16T00:46:27;3.60;;;1.90;;
40252;SDS011;25972;51.854;4.534;2022-10-16T00:54:10;3.53;;;1.20;;
40252;SDS011;25972;51.854;4.534;2022-10-16T00:56:39;2.58;;;1.42;;
40252;SDS011;25972;51.854;4.534;2022-10-16T00:59:07;4.53;;;1.98;;
40252;SDS011;25972;51.854;4.534;2022-10-16T01:01:40;1.83;;;1.30;;
40252;SDS011;25972;51.854;4.534;2022-10-16T01:04:06;4.22;;;1.70;;
40252;SDS011;25972;51.854;4.534;2022-10-16T01:06:41;2.28;;;1.13;;
40252;SDS011;25972;51.854;4.534;2022-10-16T01:12:33;2.72;;;1.33;;
40252;SDS011;25972;51.854;4.534;2022-10-16T01:18:00;3.95;;;1.92;;
40252;SDS011;25972;51.854;4.534;2022-10-16T01:20:54;1.48;;;1.17;;
40252;SDS011;25972;51.854;4.534;2022-10-16T01:29:15;3.40;;;1.48;;
40252;SDS011;25972;51.854;4.534;2022-10-16T01:31:42;3.55;;;1.80;;
40252;SDS011;25972;51.854;4.534;2022-10-16T01:36:47;3.72;;;1.80;;
40252;SDS011;25972;51.854;4.534;2022-10-16T01:39:24;3.25;;;1.83;;
40252;SDS011;25972;51.854;4.534;2022-10-16T01:41:55;2.00;;;1.42;;
40252;SDS011;25972;51.854;4.534;2022-10-16T01:44:28;3.72;;;1.65;;
40252;SDS011;25972;51.854;4.534;2022-10-16T01:46:57;5.88;;;1.98;;
40252;SDS011;25972;51.854;4.534;2022-10-16T01:49:24;4.38;;;1.58;;
40252;SDS011;25972;51.854;4.534;2022-10-16T01:51:55;5.45;;;1.88;;
40252;SDS011;25972;51.854;4.534;2022-10-16T01:54:25;4.45;;;1.98;;
40252;SDS011;25972;51.854;4.534;2022-10-16T01:56:53;3.70;;;1.70;;
40252;SDS011;25972;51.854;4.534;2022-10-16T01:59:21;6.75;;;2.05;;
40252;SDS011;25972;51.854;4.534;2022-10-16T02:01:50;5.65;;;2.00;;
40252;SDS011;25972;51.854;4.534;2022-10-16T02:06:56;7.50;;;2.05;;
40252;SDS011;25972;51.854;4.534;2022-10-16T02:09:22;3.28;;;1.88;;
40252;SDS011;25972;51.854;4.534;2022-10-16T02:11:48;4.82;;;1.83;;
40252;SDS011;25972;51.854;4.534;2022-10-16T02:14:18;5.70;;;1.80;;
40252;SDS011;25972;51.854;4.534;2022-10-16T02:16:45;4.65;;;1.98;;
40252;SDS011;25972;51.854;4.534;2022-10-16T02:19:12;5.43;;;1.83;;
40252;SDS011;25972;51.854;4.534;2022-10-16T02:21:56;6.15;;;2.33;;
40252;SDS011;25972;51.854;4.534;2022-10-16T02:24:43;6.20;;;1.70;;
40252;SDS011;25972;51.854;4.534;2022-10-16T02:27:17;5.00;;;1.75;;
40252;SDS011;25972;51.854;4.534;2022-10-16T02:30:00;4.97;;;1.60;;
40252;SDS011;25972;51.854;4.534;2022-10-16T02:32:33;2.50;;;1.15;;
40252;SDS011;25972;51.854;4.534;2022-10-16T02:34:59;5.43;;;1.90;;
40252;SDS011;25972;51.854;4.534;2022-10-16T02:37:26;2.42;;;1.70;;
40252;SDS011;25972;51.854;4.534;2022-10-16T02:39:53;4.43;;;2.03;;
40252;SDS011;25972;51.854;4.534;2022-10-16T02:42:20;3.08;;;1.23;;
40252;SDS011;25972;51.854;4.534;2022-10-16T02:44:52;6.20;;;1.98;;
40252;SDS011;25972;51.854;4.534;2022-10-16T02:47:18;4.97;;;1.77;;
40252;SDS011;25972;51.854;4.534;2022-10-16T02:49:43;5.53;;;1.92;;
40252;SDS011;25972;51.854;4.534;2022-10-16T02:52:09;5.63;;;1.90;;
40252;SDS011;25972;51.854;4.534;2022-10-16T02:54:35;4.20;;;1.90;;
40252;SDS011;25972;51.854;4.534;2022-10-16T02:57:00;4.35;;;1.70;;
40252;SDS011;25972;51.854;4.534;2022-10-16T02:59:26;3.80;;;1.88;;
40252;SDS011;25972;51.854;4.534;2022-10-16T03:01:52;5.10;;;1.75;;
40252;SDS011;25972;51.854;4.534;2022-10-16T03:04:18;5.07;;;1.80;;
40252;SDS011;25972;51.854;4.534;2022-10-16T03:06:44;5.35;;;1.85;;
40252;SDS011;25972;51.854;4.534;2022-10-16T03:09:09;0.70;;;0.70;;
40252;SDS011;25972;51.854;4.534;2022-10-16T03:11:35;5.45;;;1.95;;
40252;SDS011;25972;51.854;4.534;2022-10-16T03:14:01;4.45;;;2.03;;
40252;SDS011;25972;51.854;4.534;2022-10-16T03:16:27;3.45;;;1.63;;
40252;SDS011;25972;51.854;4.534;2022-10-16T03:18:52;5.65;;;1.58;;
40252;SDS011;25972;51.854;4.534;2022-10-16T03:21:18;4.53;;;1.60;;
40252;SDS011;25972;51.854;4.534;2022-10-16T03:23:44;4.13;;;1.58;;
40252;SDS011;25972;51.854;4.534;2022-10-16T03:26:10;7.90;;;1.50;;
40252;SDS011;25972;51.854;4.534;2022-10-16T03:28:35;2.70;;;1.20;;
40252;SDS011;25972;51.854;4.534;2022-10-16T03:31:01;3.50;;;1.25;;
40252;SDS011;25972;51.854;4.534;2022-10-16T03:33:27;2.60;;;1.20;;
40252;SDS011;25972;51.854;4.534;2022-10-16T03:35:53;4.45;;;1.27;;
40252;SDS011;25972;51.854;4.534;2022-10-16T03:38:20;2.63;;;1.60;;
40252;SDS011;25972;51.854;4.534;2022-10-16T03:40:46;2.08;;;1.05;;
40252;SDS011;25972;51.854;4.534;2022-10-16T03:43:12;2.40;;;1.40;;
40252;SDS011;25972;51.854;4.534;2022-10-16T03:45:38;4.40;;;1.30;;
40252;SDS011;25972;51.854;4.534;2022-10-16T03:48:05;2.55;;;1.45;;
40252;SDS011;25972;51.854;4.534;2022-10-16T03:50:30;2.22;;;1.23;;
40252;SDS011;25972;51.854;4.534;2022-10-16T03:52:56;4.35;;;1.55;;
40252;SDS011;25972;51.854;4.534;2022-10-16T03:55:22;2.97;;;1.52;;
40252;SDS011;25972;51.854;4.534;2022-10-16T03:57:48;4.72;;;1.40;;
40252;SDS011;25972;51.854;4.534;2022-10-16T04:00:13;3.95;;;1.50;;
40252;SDS011;25972;51.854;4.534;2022-10-16T04:02:39;2.63;;;1.40;;
40252;SDS011;25972;51.854;4.534;2022-10-16T04:05:06;7.20;;;1.80;;
40252;SDS011;25972;51.854;4.534;2022-10-16T04:07:32;3.90;;;1.50;;
40252;SDS011;25972;51.854;4.534;2022-10-16T04:09:58;7.00;;;1.77;;
40252;SDS011;25972;51.854;4.534;2022-10-16T04:12:24;8.63;;;1.48;;
40252;SDS011;25972;51.854;4.534;2022-10-16T04:14:50;1.90;;;1.17;;
40252;SDS011;25972;51.854;4.534;2022-10-16T04:17:16;2.63;;;1.45;;
40252;SDS011;25972;51.854;4.534;2022-10-16T04:19:42;2.35;;;1.30;;
40252;SDS011;25972;51.854;4.534;2022-10-16T04:22:08;1.60;;;1.00;;
40252;SDS011;25972;51.854;4.534;2022-10-16T04:24:34;5.30;;;1.98;;
40252;SDS011;25972;51.854;4.534;2022-10-16T04:26:59;5.97;;;1.60;;
40252;SDS011;25972;51.854;4.534;2022-10-16T04:29:25;1.17;;;1.08;;
40252;SDS011;25972;51.854;4.534;2022-10-16T04:31:51;4.55;;;1.70;;
40252;SDS011;25972;51.854;4.534;2022-10-16T04:34:17;2.78;;;1.60;;
40252;SDS011;25972;51.854;4.534;2022-10-16T04:36:43;3.20;;;1.38;;
40252;SDS011;25972;51.854;4.534;2022-10-16T04:39:11;5.95;;;1.52;;
40252;SDS011;25972;51.854;4.534;2022-10-16T04:41:37;2.55;;;1.60;;
40252;SDS011;25972;51.854;4.534;2022-10-16T04:44:03;5.55;;;1.90;;
40252;SDS011;25972;51.854;4.534;2022-10-16T04:46:28;5.97;;;1.60;;
40252;SDS011;25972;51.854;4.534;2022-10-16T04:48:54;5.05;;;1.83;;
40252;SDS011;25972;51.854;4.534;2022-10-16T04:51:20;4.93;;;1.77;;
40252;SDS011;25972;51.854;4.534;2022-10-16T04:53:46;4.68;;;1.80;;
40252;SDS011;25972;51.854;4.534;2022-10-16T04:56:11;4.72;;;1.70;;
40252;SDS011;25972;51.854;4.534;2022-10-16T04:58:37;2.33;;;1.05;;
40252;SDS011;25972;51.854;4.534;2022-10-16T05:01:03;4.55;;;1.60;;
40252;SDS011;25972;51.854;4.534;2022-10-16T05:03:29;5.40;;;2.13;;
40252;SDS011;25972;51.854;4.534;2022-10-16T05:05:55;3.78;;;1.50;;
40252;SDS011;25972;51.854;4.534;2022-10-16T05:08:21;5.88;;;1.60;;
40252;SDS011;25972;51.854;4.534;2022-10-16T05:10:47;2.55;;;1.20;;
40252;SDS011;25972;51.854;4.534;2022-10-16T05:13:13;6.65;;;1.92;;
40252;SDS011;25972;51.854;4.534;2022-10-16T05:15:39;3.28;;;1.30;;
40252;SDS011;25972;51.854;4.534;2022-10-16T05:18:04;6.25;;;1.85;;
40252;SDS011;25972;51.854;4.534;2022-10-16T05:20:30;4.72;;;1.70;;
40252;SDS011;25972;51.854;4.534;2022-10-16T05:22:56;2.95;;;1.40;;
40252;SDS011;25972;51.854;4.534;2022-10-16T05:25:22;3.78;;;1.17;;
40252;SDS011;25972;51.854;4.534;2022-10-16T05:27:48;3.45;;;1.23;;
40252;SDS011;25972;51.854;4.534;2022-10-16T05:30:14;4.13;;;1.63;;
40252;SDS011;25972;51.854;4.534;2022-10-16T05:32:40;4.82;;;1.83;;
40252;SDS011;25972;51.854;4.534;2022-10-16T05:35:06;2.05;;;1.38;;
40252;SDS011;25972;51.854;4.534;2022-10-16T05:37:32;8.07;;;1.65;;
40252;SDS011;25972;51.854;4.534;2022-10-16T05:39:58;2.55;;;0.80;;
40252;SDS011;25972;51.854;4.534;2022-10-16T05:42:24;16.08;;;1.83;;
40252;SDS011;25972;51.854;4.534;2022-10-16T05:44:49;5.43;;;1.42;;
40252;SDS011;25972;51.854;4.534;2022-10-16T05:47:15;3.72;;;1.55;;
40252;SDS011;25972;51.854;4.534;2022-10-16T05:49:41;5.22;;;1.83;;
40252;SDS011;25972;51.854;4.534;2022-10-16T05:52:07;5.43;;;1.65;;
40252;SDS011;25972;51.854;4.534;2022-10-16T05:54:32;6.35;;;1.90;;
40252;SDS011;25972;51.854;4.534;2022-10-16T05:56:58;2.42;;;1.60;;
40252;SDS011;25972;51.854;4.534;2022-10-16T05:59:24;4.20;;;1.40;;
40252;SDS011;25972;51.854;4.534;2022-10-16T06:01:50;5.80;;;1.40;;
40252;SDS011;25972;51.854;4.534;2022-10-16T06:04:15;4.45;;;1.40;;
40252;SDS011;25972;51.854;4.534;2022-10-16T06:06:41;1.23;;;0.90;;
40252;SDS011;25972;51.854;4.534;2022-10-16T06:09:07;5.93;;;2.00;;
40252;SDS011;25972;51.854;4.534;2022-10-16T06:11:34;4.78;;;1.77;;
40252;SDS011;25972;51.854;4.534;2022-10-16T06:14:01;1.80;;;0.90;;
40252;SDS011;25972;51.854;4.534;2022-10-16T06:16:31;2.25;;;1.40;;
40252;SDS011;25972;51.854;4.534;2022-10-16T06:19:01;9.27;;;1.75;;
40252;SDS011;25972;51.854;4.534;2022-10-16T06:21:27;3.58;;;1.75;;
40252;SDS011;25972;51.854;4.534;2022-10-16T06:23:54;1.02;;;0.70;;
40252;SDS011;25972;51.854;4.534;2022-10-16T06:26:21;4.53;;;1.42;;
40252;SDS011;25972;51.854;4.534;2022-10-16T06:28:49;5.55;;;1.10;;
40252;SDS011;25972;51.854;4.534;2022-10-16T06:31:15;6.03;;;1.35;;
40252;SDS011;25972;51.854;4.534;2022-10-16T06:33:41;4.82;;;1.98;;
40252;SDS011;25972;51.854;4.534;2022-10-16T06:36:09;3.25;;;1.70;;
40252;SDS011;25972;51.854;4.534;2022-10-16T06:38:38;2.13;;;1.17;;
40252;SDS011;25972;51.854;4.534;2022-10-16T06:41:04;5.25;;;1.80;;
40252;SDS011;25972;51.854;4.534;2022-10-16T06:43:31;5.40;;;1.40;;
40252;SDS011;25972;51.854;4.534;2022-10-16T06:45:57;2.75;;;1.13;;
40252;SDS011;25972;51.854;4.534;2022-10-16T06:48:24;5.35;;;1.67;;
40252;SDS011;25972;51.854;4.534;2022-10-16T06:53:31;2.58;;;1.42;;
40252;SDS011;25972;51.854;4.534;2022-10-16T06:55:58;4.10;;;1.60;;
40252;SDS011;25972;51.854;4.534;2022-10-16T06:58:31;5.88;;;2.10;;
40252;SDS011;25972;51.854;4.534;2022-10-16T07:00:57;7.22;;;1.63;;
40252;SDS011;25972;51.854;4.534;2022-10-16T07:03:22;5.28;;;1.70;;
40252;SDS011;25972;51.854;4.534;2022-10-16T07:05:48;4.53;;;1.50;;
40252;SDS011;25972;51.854;4.534;2022-10-16T07:08:14;5.25;;;1.48;;
40252;SDS011;25972;51.854;4.534;2022-10-16T07:10:40;6.85;;;2.10;;
40252;SDS011;25972;51.854;4.534;2022-10-16T07:13:05;4.43;;;1.67;;
40252;SDS011;25972;51.854;4.534;2022-10-16T07:15:32;4.70;;;1.83;;
40252;SDS011;25972;51.854;4.534;2022-10-16T07:17:58;7.40;;;1.50;;
40252;SDS011;25972;51.854;4.534;2022-10-16T07:20:24;4.60;;;1.50;;
40252;SDS011;25972;51.854;4.534;2022-10-16T07:22:51;4.45;;;1.63;;
40252;SDS011;25972;51.854;4.534;2022-10-16T07:25:17;7.47;;;1.63;;
40252;SDS011;25972;51.854;4.534;2022-10-16T07:27:43;5.72;;;1.60;;
40252;SDS011;25972;51.854;4.534;2022-10-16T07:30:09;7.90;;;1.75;;
40252;SDS011;25972;51.854;4.534;2022-10-16T07:32:35;2.92;;;1.20;;
40252;SDS011;25972;51.854;4.534;2022-10-16T07:35:00;9.63;;;1.80;;
40252;SDS011;25972;51.854;4.534;2022-10-16T07:37:26;4.32;;;1.80;;
40252;SDS011;25972;51.854;4.534;2022-10-16T07:39:52;3.92;;;1.60;;
40252;SDS011;25972;51.854;4.534;2022-10-16T07:42:18;3.88;;;1.20;;
40252;SDS011;25972;51.854;4.534;2022-10-16T07:44:45;8.02;;;0.93;;
40252;SDS011;25972;51.854;4.534;2022-10-16T07:47:11;2.22;;;1.20;;
40252;SDS011;25972;51.854;4.534;2022-10-16T07:49:36;6.45;;;1.45;;
40252;SDS011;25972;51.854;4.534;2022-10-16T07:52:02;5.38;;;1.42;;
40252;SDS011;25972;51.854;4.534;2022-10-16T07:54:28;4.97;;;1.52;;
40252;SDS011;25972;51.854;4.534;2022-10-16T07:56:54;6.80;;;1.52;;
40252;SDS011;25972;51.854;4.534;2022-10-16T07:59:20;4.30;;;1.30;;
40252;SDS011;25972;51.854;4.534;2022-10-16T08:01:46;4.78;;;1.73;;
40252;SDS011;25972;51.854;4.534;2022-10-16T08:04:11;2.83;;;1.10;;
40252;SDS011;25972;51.854;4.534;2022-10-16T08:06:38;8.25;;;1.90;;
40252;SDS011;25972;51.854;4.534;2022-10-16T08:09:05;5.50;;;1.73;;
40252;SDS011;25972;51.854;4.534;2022-10-16T08:11:32;9.10;;;1.63;;
40252;SDS011;25972;51.854;4.534;2022-10-16T08:13:58;10.10;;;1.75;;
40252;SDS011;25972;51.854;4.534;2022-10-16T08:16:24;6.90;;;1.73;;
40252;SDS011;25972;51.854;4.534;2022-10-16T08:18:50;3.63;;;1.42;;
40252;SDS011;25972;51.854;4.534;2022-10-16T08:21:17;6.93;;;1.40;;
40252;SDS011;25972;51.854;4.534;2022-10-16T08:23:45;4.47;;;1.67;;
40252;SDS011;25972;51.854;4.534;2022-10-16T08:26:11;8.70;;;2.47;;
40252;SDS011;25972;51.854;4.534;2022-10-16T08:28:37;4.13;;;1.25;;
40252;SDS011;25972;51.854;4.534;2022-10-16T08:31:07;3.25;;;1.20;;
40252;SDS011;25972;51.854;4.534;2022-10-16T08:33:34;6.78;;;1.83;;
40252;SDS011;25972;51.854;4.534;2022-10-16T08:36:01;6.25;;;1.77;;
40252;SDS011;25972;51.854;4.534;2022-10-16T08:38:28;7.30;;;1.77;;
40252;SDS011;25972;51.854;4.534;2022-10-16T08:40:54;5.10;;;1.60;;
40252;SDS011;25972;51.854;4.534;2022-10-16T08:43:43;2.63;;;1.40;;
40252;SDS011;25972;51.854;4.534;2022-10-16T08:49:26;7.82;;;2.08;;
40252;SDS011;25972;51.854;4.534;2022-10-16T08:51:52;4.70;;;2.05;;
40252;SDS011;25972;51.854;4.534;2022-10-16T08:57:17;8.13;;;2.03;;
40252;SDS011;25972;51.854;4.534;2022-10-16T08:59:45;2.15;;;1.42;;
40252;SDS011;25972;51.854;4.534;2022-10-16T09:02:31;2.53;;;1.48;;
40252;SDS011;25972;51.854;4.534;2022-10-16T09:10:35;4.57;;;1.42;;
40252;SDS011;25972;51.854;4.534;2022-10-16T09:20:51;8.68;;;2.60;;
40252;SDS011;25972;51.854;4.534;2022-10-16T09:23:28;11.63;;;2.05;;
40252;SDS011;25972;51.854;4.534;2022-10-16T09:25:56;7.80;;;2.33;;
40252;SDS011;25972;51.854;4.534;2022-10-16T09:28:24;6.32;;;2.00;;
40252;SDS011;25972;51.854;4.534;2022-10-16T09:30:50;5.72;;;2.22;;
40252;SDS011;25972;51.854;4.534;2022-10-16T09:33:17;7.57;;;2.42;;
40252;SDS011;25972;51.854;4.534;2022-10-16T09:35:52;6.85;;;2.30;;
40252;SDS011;25972;51.854;4.534;2022-10-16T09:40:51;4.65;;;1.90;;
40252;SDS011;25972;51.854;4.534;2022-10-16T09:45:54;1.60;;;1.50;;
40252;SDS011;25972;51.854;4.534;2022-10-16T09:48:20;7.43;;;2.50;;
40252;SDS011;25972;51.854;4.534;2022-10-16T09:50:55;10.80;;;2.28;;
40252;SDS011;25972;51.854;4.534;2022-10-16T09:53:59;4.50;;;2.20;;
40252;SDS011;25972;51.854;4.534;2022-10-16T09:56:23;10.15;;;2.80;;
40252;SDS011;25972;51.854;4.534;2022-10-16T09:58:55;5.80;;;1.90;;
40252;SDS011;25972;51.854;4.534;2022-10-16T10:01:29;5.75;;;2.22;;
40252;SDS011;25972;51.854;4.534;2022-10-16T10:04:00;10.70;;;2.70;;
40252;SDS011;25972;51.854;4.534;2022-10-16T10:06:29;5.45;;;1.90;;
40252;SDS011;25972;51.854;4.534;2022-10-16T10:09:14;8.50;;;2.72;;
40252;SDS011;25972;51.854;4.534;2022-10-16T10:11:50;11.25;;;2.40;;
40252;SDS011;25972;51.854;4.534;2022-10-16T10:16:49;10.27;;;2.45;;
40252;SDS011;25972;51.854;4.534;2022-10-16T10:19:21;9.93;;;2.50;;
40252;SDS011;25972;51.854;4.534;2022-10-16T10:21:48;8.90;;;2.38;;
40252;SDS011;25972;51.854;4.534;2022-10-16T10:24:17;4.30;;;1.83;;
40252;SDS011;25972;51.854;4.534;2022-10-16T10:29:34;11.13;;;2.70;;
40252;SDS011;25972;51.854;4.534;2022-10-16T10:32:24;9.98;;;2.28;;
40252;SDS011;25972;51.854;4.534;2022-10-16T10:35:07;6.57;;;2.00;;
40252;SDS011;25972;51.854;4.534;2022-10-16T10:37:45;10.55;;;2.63;;
40252;SDS011;25972;51.854;4.534;2022-10-16T10:43:27;12.15;;;2.65;;
40252;SDS011;25972;51.854;4.534;2022-10-16T10:54:49;13.07;;;2.58;;
40252;SDS011;25972;51.854;4.534;2022-10-16T11:00:49;11.60;;;2.33;;
40252;SDS011;25972;51.854;4.534;2022-10-16T11:06:24;6.82;;;2.42;;
40252;SDS011;25972;51.854;4.534;2022-10-16T11:09:41;11.60;;;2.75;;
40252;SDS011;25972;51.854;4.534;2022-10-16T11:11:51;10.85;;;2.33;;
40252;SDS011;25972;51.854;4.534;2022-10-16T11:14:35;8.27;;;2.50;;
40252;SDS011;25972;51.854;4.534;2022-10-16T11:17:13;3.95;;;2.10;;
40252;SDS011;25972;51.854;4.534;2022-10-16T11:20:33;6.07;;;2.25;;
40252;SDS011;25972;51.854;4.534;2022-10-16T11:22:54;8.32;;;2.30;;
40252;SDS011;25972;51.854;4.534;2022-10-16T11:25:40;11.77;;;2.80;;
40252;SDS011;25972;51.854;4.534;2022-10-16T11:33:37;11.70;;;3.08;;
40252;SDS011;25972;51.854;4.534;2022-10-16T11:41:36;13.85;;;2.92;;
40252;SDS011;25972;51.854;4.534;2022-10-16T11:44:16;8.45;;;3.05;;
40252;SDS011;25972;51.854;4.534;2022-10-16T11:47:14;6.78;;;2.58;;
40252;SDS011;25972;51.854;4.534;2022-10-16T11:53:01;9.75;;;3.40;;
40252;SDS011;25972;51.854;4.534;2022-10-16T11:55:31;10.53;;;3.10;;
40252;SDS011;25972;51.854;4.534;2022-10-16T12:03:35;16.38;;;3.47;;
40252;SDS011;25972;51.854;4.534;2022-10-16T12:08:53;10.02;;;3.30;;
40252;SDS011;25972;51.854;4.534;2022-10-16T12:13:52;9.13;;;2.47;;
40252;SDS011;25972;51.854;4.534;2022-10-16T12:16:32;8.88;;;2.83;;
40252;SDS011;25972;51.854;4.534;2022-10-16T12:19:12;13.75;;;3.88;;
40252;SDS011;25972;51.854;4.534;2022-10-16T12:21:40;8.07;;;2.40;;
40252;SDS011;25972;51.854;4.534;2022-10-16T12:24:18;13.80;;;3.20;;
40252;SDS011;25972;51.854;4.534;2022-10-16T12:26:56;8.35;;;2.67;;
40252;SDS011;25972;51.854;4.534;2022-10-16T12:31:57;11.75;;;2.72;;
40252;SDS011;25972;51.854;4.534;2022-10-16T12:37:25;12.15;;;2.70;;
40252;SDS011;25972;51.854;4.534;2022-10-16T12:40:12;13.40;;;3.08;;
40252;SDS011;25972;51.854;4.534;2022-10-16T12:42:50;8.95;;;2.97;;
40252;SDS011;25972;51.854;4.534;2022-10-16T12:47:56;16.25;;;3.08;;
40252;SDS011;25972;51.854;4.534;2022-10-16T12:53:00;11.48;;;3.10;;
40252;SDS011;25972;51.854;4.534;2022-10-16T12:55:30;9.63;;;2.50;;
40252;SDS011;25972;51.854;4.534;2022-10-16T12:58:09;12.07;;;2.78;;
40252;SDS011;25972;51.854;4.534;2022-10-16T13:01:02;11.35;;;2.88;;
40252;SDS011;25972;51.854;4.534;2022-10-16T13:12:15;13.70;;;2.88;;
40252;SDS011;25972;51.854;4.534;2022-10-16T13:15:22;5.93;;;2.58;;
40252;SDS011;25972;51.854;4.534;2022-10-16T13:29:56;9.77;;;2.60;;
40252;SDS011;25972;51.854;4.534;2022-10-16T13:32:27;8.02;;;2.42;;
40252;SDS011;25972;51.854;4.534;2022-10-16T13:34:54;11.57;;;2.65;;
40252;SDS011;25972;51.854;4.534;2022-10-16T13:37:21;8.05;;;2.50;;
40252;SDS011;25972;51.854;4.534;2022-10-16T13:39:50;10.82;;;2.95;;
40252;SDS011;25972;51.854;4.534;2022-10-16T13:44:53;9.98;;;2.83;;
40252;SDS011;25972;51.854;4.534;2022-10-16T13:47:23;8.82;;;2.60;;
40252;SDS011;25972;51.854;4.534;2022-10-16T13:50:01;11.57;;;2.65;;
40252;SDS011;25972;51.854;4.534;2022-10-16T13:52:29;18.13;;;3.20;;
40252;SDS011;25972;51.854;4.534;2022-10-16T13:54:55;12.40;;;2.97;;
40252;SDS011;25972;51.854;4.534;2022-10-16T13:57:22;10.85;;;3.20;;
40252;SDS011;25972;51.854;4.534;2022-10-16T13:59:49;11.77;;;3.40;;
40252;SDS011;25972;51.854;4.534;2022-10-16T14:02:20;10.32;;;2.75;;
40252;SDS011;25972;51.854;4.534;2022-10-16T14:05:00;8.65;;;2.95;;
40252;SDS011;25972;51.854;4.534;2022-10-16T14:07:28;9.57;;;2.90;;
40252;SDS011;25972;51.854;4.534;2022-10-16T14:09:57;8.55;;;2.50;;
40252;SDS011;25972;51.854;4.534;2022-10-16T14:12:27;10.52;;;3.03;;
40252;SDS011;25972;51.854;4.534;2022-10-16T14:14:53;11.90;;;2.75;;
40252;SDS011;25972;51.854;4.534;2022-10-16T14:19:55;13.23;;;3.00;;
40252;SDS011;25972;51.854;4.534;2022-10-16T14:24:49;8.23;;;2.67;;
40252;SDS011;25972;51.854;4.534;2022-10-16T14:27:31;8.00;;;2.72;;
40252;SDS011;25972;51.854;4.534;2022-10-16T14:30:33;12.43;;;3.15;;
40252;SDS011;25972;51.854;4.534;2022-10-16T14:35:22;11.65;;;2.83;;
40252;SDS011;25972;51.854;4.534;2022-10-16T14:37:55;8.70;;;2.78;;
40252;SDS011;25972;51.854;4.534;2022-10-16T14:40:24;15.82;;;3.65;;
40252;SDS011;25972;51.854;4.534;2022-10-16T14:42:52;10.52;;;2.90;;
40252;SDS011;25972;51.854;4.534;2022-10-16T14:45:19;11.13;;;2.60;;
40252;SDS011;25972;51.854;4.534;2022-10-16T14:47:51;8.93;;;2.90;;
40252;SDS011;25972;51.854;4.534;2022-10-16T14:50:20;12.32;;;2.90;;
40252;SDS011;25972;51.854;4.534;2022-10-16T14:52:46;9.48;;;2.65;;
40252;SDS011;25972;51.854;4.534;2022-10-16T14:55:12;9.07;;;2.70;;
40252;SDS011;25972;51.854;4.534;2022-10-16T14:57:38;9.80;;;3.00;;
40252;SDS011;25972;51.854;4.534;2022-10-16T15:00:38;7.68;;;2.25;;
40252;SDS011;25972;51.854;4.534;2022-10-16T15:02:56;10.25;;;2.95;;
40252;SDS011;25972;51.854;4.534;2022-10-16T15:05:24;14.30;;;3.03;;
40252;SDS011;25972;51.854;4.534;2022-10-16T15:07:51;10.93;;;2.50;;
40252;SDS011;25972;51.854;4.534;2022-10-16T15:10:18;13.88;;;3.05;;
40252;SDS011;25972;51.854;4.534;2022-10-16T15:12:46;12.90;;;2.50;;
40252;SDS011;25972;51.854;4.534;2022-10-16T15:17:48;11.45;;;2.60;;
40252;SDS011;25972;51.854;4.534;2022-10-16T15:20:17;10.07;;;2.72;;
40252;SDS011;25972;51.854;4.534;2022-10-16T15:22:43;7.82;;;2.55;;
40252;SDS011;25972;51.854;4.534;2022-10-16T15:25:25;11.40;;;4.80;;
40252;SDS011;25972;51.854;4.534;2022-10-16T15:27:55;15.95;;;4.85;;
40252;SDS011;25972;51.854;4.534;2022-10-16T15:30:21;11.75;;;3.42;;
40252;SDS011;25972;51.854;4.534;2022-10-16T15:32:47;12.35;;;4.25;;
40252;SDS011;25972;51.854;4.534;2022-10-16T15:35:13;18.60;;;4.45;;
40252;SDS011;25972;51.854;4.534;2022-10-16T15:37:38;23.92;;;7.00;;
40252;SDS011;25972;51.854;4.534;2022-10-16T15:40:04;17.35;;;5.53;;
40252;SDS011;25972;51.854;4.534;2022-10-16T15:42:30;15.85;;;4.55;;
40252;SDS011;25972;51.854;4.534;2022-10-16T15:44:56;13.70;;;3.70;;
40252;SDS011;25972;51.854;4.534;2022-10-16T15:47:22;10.75;;;3.20;;
40252;SDS011;25972;51.854;4.534;2022-10-16T15:49:48;16.35;;;3.08;;
40252;SDS011;25972;51.854;4.534;2022-10-16T15:52:13;11.57;;;3.05;;
40252;SDS011;25972;51.854;4.534;2022-10-16T15:54:39;9.70;;;2.92;;
40252;SDS011;25972;51.854;4.534;2022-10-16T15:57:05;12.45;;;3.28;;
40252;SDS011;25972;51.854;4.534;2022-10-16T15:59:31;15.25;;;3.40;;
40252;SDS011;25972;51.854;4.534;2022-10-16T16:01:57;13.52;;;3.45;;
40252;SDS011;25972;51.854;4.534;2022-10-16T16:04:23;15.20;;;2.95;;
40252;SDS011;25972;51.854;4.534;2022-10-16T16:06:49;10.65;;;2.60;;
40252;SDS011;25972;51.854;4.534;2022-10-16T16:09:15;10.00;;;2.78;;
40252;SDS011;25972;51.854;4.534;2022-10-16T16:11:41;17.75;;;4.20;;
40252;SDS011;25972;51.854;4.534;2022-10-16T16:14:07;10.70;;;2.97;;
40252;SDS011;25972;51.854;4.534;2022-10-16T16:16:36;10.43;;;3.17;;
40252;SDS011;25972;51.854;4.534;2022-10-16T16:19:06;10.50;;;3.15;;
40252;SDS011;25972;51.854;4.534;2022-10-16T16:21:35;11.80;;;2.95;;
40252;SDS011;25972;51.854;4.534;2022-10-16T16:24:01;12.80;;;3.88;;
40252;SDS011;25972;51.854;4.534;2022-10-16T16:26:33;15.43;;;4.38;;
40252;SDS011;25972;51.854;4.534;2022-10-16T16:29:02;12.50;;;3.58;;
40252;SDS011;25972;51.854;4.534;2022-10-16T16:31:29;10.85;;;3.30;;
40252;SDS011;25972;51.854;4.534;2022-10-16T16:33:56;14.23;;;3.40;;
40252;SDS011;25972;51.854;4.534;2022-10-16T16:36:23;10.40;;;2.85;;
40252;SDS011;25972;51.854;4.534;2022-10-16T16:38:50;15.75;;;3.88;;
40252;SDS011;25972;51.854;4.534;2022-10-16T16:41:20;14.27;;;3.50;;
40252;SDS011;25972;51.854;4.534;2022-10-16T16:43:48;16.25;;;3.47;;
40252;SDS011;25972;51.854;4.534;2022-10-16T16:46:16;12.88;;;3.63;;
40252;SDS011;25972;51.854;4.534;2022-10-16T16:48:41;14.15;;;3.45;;
40252;SDS011;25972;51.854;4.534;2022-10-16T16:51:15;17.88;;;4.57;;
40252;SDS011;25972;51.854;4.534;2022-10-16T16:53:43;14.55;;;3.65;;
40252;SDS011;25972;51.854;4.534;2022-10-16T16:56:10;13.68;;;3.80;;
40252;SDS011;25972;51.854;4.534;2022-10-16T16:58:36;17.27;;;3.60;;
40252;SDS011;25972;51.854;4.534;2022-10-16T17:01:02;15.50;;;4.45;;
40252;SDS011;25972;51.854;4.534;2022-10-16T17:03:29;16.83;;;3.88;;
40252;SDS011;25972;51.854;4.534;2022-10-16T17:06:00;16.83;;;4.75;;
40252;SDS011;25972;51.854;4.534;2022-10-16T17:08:28;12.82;;;3.83;;
40252;SDS011;25972;51.854;4.534;2022-10-16T17:10:55;17.00;;;4.20;;
40252;SDS011;25972;51.854;4.534;2022-10-16T17:13:22;12.25;;;4.05;;
40252;SDS011;25972;51.854;4.534;2022-10-16T17:15:49;15.75;;;4.00;;
40252;SDS011;25972;51.854;4.534;2022-10-16T17:18:15;14.27;;;4.05;;